Rothwell, United Kingdom
Current Conditions -  °F | °C
As of 12:50 PM on Sunday 23 Nov 2014 (Local Time) from EGXT Reporting Station
Moderate Rain Moderate Rain  
Wind Chill: 45°   Ceiling: 3100
Heat Index: 45°   Visibility: 6mi
Dew Point: 43°   Wind: 3mph
Humidity: 93%   Direction: 330°NNW
Pressure: 30.03"   Gusts: NA
Location:  52.42°N, 0.8°W
Report Text: EGXT 231250Z AUTO 33003KT 9999 RA BKN031/// BKN045/// 07/06 Q1017
Loading
Personal Weather Stations






























Interactive Weather Map New forecast layout! Learn more

10-Day Weather Forecast

Advertisements
Track Severe Weather on mobile